sensor_id;sensor_type;location;lat;lon;timestamp;P1;durP1;ratioP1;P2;durP2;ratioP2
48205;SDS011;33995;48.202;16.260;2023-12-28T00:01:14;15.23;;;12.17;;
48205;SDS011;33995;48.202;16.260;2023-12-28T00:03:41;15.70;;;12.07;;
48205;SDS011;33995;48.202;16.260;2023-12-28T00:06:12;14.77;;;12.30;;
48205;SDS011;33995;48.202;16.260;2023-12-28T00:08:39;15.97;;;12.33;;
48205;SDS011;33995;48.202;16.260;2023-12-28T00:11:09;16.27;;;12.43;;
48205;SDS011;33995;48.202;16.260;2023-12-28T00:13:39;14.40;;;12.33;;
48205;SDS011;33995;48.202;16.260;2023-12-28T00:16:07;14.93;;;13.20;;
48205;SDS011;33995;48.202;16.260;2023-12-28T00:18:34;15.10;;;12.83;;
48205;SDS011;33995;48.202;16.260;2023-12-28T00:21:04;16.60;;;13.20;;
48205;SDS011;33995;48.202;16.260;2023-12-28T00:23:31;17.67;;;13.50;;
48205;SDS011;33995;48.202;16.260;2023-12-28T00:25:58;15.87;;;14.07;;
48205;SDS011;33995;48.202;16.260;2023-12-28T00:28:25;16.43;;;13.57;;
48205;SDS011;33995;48.202;16.260;2023-12-28T00:30:52;15.80;;;13.57;;
48205;SDS011;33995;48.202;16.260;2023-12-28T00:33:20;16.60;;;13.70;;
48205;SDS011;33995;48.202;16.260;2023-12-28T00:35:47;16.37;;;14.03;;
48205;SDS011;33995;48.202;16.260;2023-12-28T00:38:14;15.67;;;13.97;;
48205;SDS011;33995;48.202;16.260;2023-12-28T00:40:44;16.33;;;13.80;;
48205;SDS011;33995;48.202;16.260;2023-12-28T00:43:11;17.43;;;14.03;;
48205;SDS011;33995;48.202;16.260;2023-12-28T00:45:39;16.27;;;14.47;;
48205;SDS011;33995;48.202;16.260;2023-12-28T00:48:07;15.90;;;13.10;;
48205;SDS011;33995;48.202;16.260;2023-12-28T00:50:34;17.10;;;12.67;;
48205;SDS011;33995;48.202;16.260;2023-12-28T00:53:01;14.07;;;11.90;;
48205;SDS011;33995;48.202;16.260;2023-12-28T00:55:28;14.90;;;12.93;;
48205;SDS011;33995;48.202;16.260;2023-12-28T00:57:55;16.80;;;12.60;;
48205;SDS011;33995;48.202;16.260;2023-12-28T01:00:23;15.03;;;12.40;;
48205;SDS011;33995;48.202;16.260;2023-12-28T01:02:51;17.13;;;12.57;;
48205;SDS011;33995;48.202;16.260;2023-12-28T01:05:18;16.50;;;13.23;;
48205;SDS011;33995;48.202;16.260;2023-12-28T01:07:48;15.33;;;13.50;;
48205;SDS011;33995;48.202;16.260;2023-12-28T01:10:15;14.90;;;13.00;;
48205;SDS011;33995;48.202;16.260;2023-12-28T01:12:42;16.27;;;12.90;;
48205;SDS011;33995;48.202;16.260;2023-12-28T01:15:09;15.87;;;13.00;;
48205;SDS011;33995;48.202;16.260;2023-12-28T01:17:37;16.00;;;13.43;;
48205;SDS011;33995;48.202;16.260;2023-12-28T01:20:04;15.33;;;12.87;;
48205;SDS011;33995;48.202;16.260;2023-12-28T01:22:32;15.00;;;12.90;;
48205;SDS011;33995;48.202;16.260;2023-12-28T01:24:59;15.43;;;12.73;;
48205;SDS011;33995;48.202;16.260;2023-12-28T01:27:26;16.73;;;13.37;;
48205;SDS011;33995;48.202;16.260;2023-12-28T01:29:54;15.77;;;12.87;;
48205;SDS011;33995;48.202;16.260;2023-12-28T01:32:21;14.97;;;12.80;;
48205;SDS011;33995;48.202;16.260;2023-12-28T01:34:48;15.33;;;13.40;;
48205;SDS011;33995;48.202;16.260;2023-12-28T01:37:16;16.47;;;13.43;;
48205;SDS011;33995;48.202;16.260;2023-12-28T01:39:43;16.40;;;13.30;;
48205;SDS011;33995;48.202;16.260;2023-12-28T01:42:13;17.80;;;14.20;;
48205;SDS011;33995;48.202;16.260;2023-12-28T01:44:40;19.87;;;14.50;;
48205;SDS011;33995;48.202;16.260;2023-12-28T01:47:10;17.53;;;13.50;;
48205;SDS011;33995;48.202;16.260;2023-12-28T01:49:37;15.87;;;12.60;;
48205;SDS011;33995;48.202;16.260;2023-12-28T01:52:05;17.60;;;13.50;;
48205;SDS011;33995;48.202;16.260;2023-12-28T01:54:33;15.07;;;13.20;;
48205;SDS011;33995;48.202;16.260;2023-12-28T01:57:01;14.83;;;12.93;;
48205;SDS011;33995;48.202;16.260;2023-12-28T01:59:32;15.67;;;13.27;;
48205;SDS011;33995;48.202;16.260;2023-12-28T02:02:00;16.07;;;13.13;;
48205;SDS011;33995;48.202;16.260;2023-12-28T02:04:27;16.27;;;12.90;;
48205;SDS011;33995;48.202;16.260;2023-12-28T02:06:56;18.23;;;14.30;;
48205;SDS011;33995;48.202;16.260;2023-12-28T02:09:24;16.93;;;14.10;;
48205;SDS011;33995;48.202;16.260;2023-12-28T02:11:52;17.33;;;13.40;;
48205;SDS011;33995;48.202;16.260;2023-12-28T02:14:20;19.13;;;14.60;;
48205;SDS011;33995;48.202;16.260;2023-12-28T02:16:57;17.87;;;13.83;;
48205;SDS011;33995;48.202;16.260;2023-12-28T02:19:32;20.27;;;14.10;;
48205;SDS011;33995;48.202;16.260;2023-12-28T02:22:07;20.07;;;15.00;;
48205;SDS011;33995;48.202;16.260;2023-12-28T02:27:30;19.53;;;14.50;;
48205;SDS011;33995;48.202;16.260;2023-12-28T02:29:58;17.93;;;15.17;;
48205;SDS011;33995;48.202;16.260;2023-12-28T02:32:28;17.83;;;14.60;;
48205;SDS011;33995;48.202;16.260;2023-12-28T02:35:09;18.07;;;14.63;;
48205;SDS011;33995;48.202;16.260;2023-12-28T02:37:46;17.80;;;14.00;;
48205;SDS011;33995;48.202;16.260;2023-12-28T02:40:17;18.40;;;14.80;;
48205;SDS011;33995;48.202;16.260;2023-12-28T02:42:45;17.30;;;13.93;;
48205;SDS011;33995;48.202;16.260;2023-12-28T02:45:12;17.10;;;14.37;;
48205;SDS011;33995;48.202;16.260;2023-12-28T02:47:41;17.87;;;13.97;;
48205;SDS011;33995;48.202;16.260;2023-12-28T02:50:09;17.20;;;14.07;;
48205;SDS011;33995;48.202;16.260;2023-12-28T02:52:36;19.33;;;15.53;;
48205;SDS011;33995;48.202;16.260;2023-12-28T02:55:06;18.03;;;14.30;;
48205;SDS011;33995;48.202;16.260;2023-12-28T02:57:34;19.03;;;14.23;;
48205;SDS011;33995;48.202;16.260;2023-12-28T03:00:04;17.43;;;14.60;;
48205;SDS011;33995;48.202;16.260;2023-12-28T03:02:32;21.40;;;15.57;;
48205;SDS011;33995;48.202;16.260;2023-12-28T03:04:59;20.93;;;13.93;;
48205;SDS011;33995;48.202;16.260;2023-12-28T03:07:26;19.83;;;14.37;;
48205;SDS011;33995;48.202;16.260;2023-12-28T03:09:53;22.37;;;14.50;;
48205;SDS011;33995;48.202;16.260;2023-12-28T03:12:21;23.30;;;14.70;;
48205;SDS011;33995;48.202;16.260;2023-12-28T03:14:51;20.67;;;14.73;;
48205;SDS011;33995;48.202;16.260;2023-12-28T03:17:18;21.77;;;15.20;;
48205;SDS011;33995;48.202;16.260;2023-12-28T03:19:45;24.47;;;13.93;;
48205;SDS011;33995;48.202;16.260;2023-12-28T03:22:12;23.70;;;15.90;;
48205;SDS011;33995;48.202;16.260;2023-12-28T03:24:40;20.83;;;15.33;;
48205;SDS011;33995;48.202;16.260;2023-12-28T03:27:07;24.73;;;15.43;;
48205;SDS011;33995;48.202;16.260;2023-12-28T03:29:34;24.57;;;15.23;;
48205;SDS011;33995;48.202;16.260;2023-12-28T03:32:01;26.30;;;16.37;;
48205;SDS011;33995;48.202;16.260;2023-12-28T03:34:28;23.70;;;15.87;;
48205;SDS011;33995;48.202;16.260;2023-12-28T03:36:56;26.90;;;16.97;;
48205;SDS011;33995;48.202;16.260;2023-12-28T03:39:26;26.87;;;17.07;;
48205;SDS011;33995;48.202;16.260;2023-12-28T03:41:54;31.90;;;18.73;;
48205;SDS011;33995;48.202;16.260;2023-12-28T03:44:21;33.40;;;19.80;;
48205;SDS011;33995;48.202;16.260;2023-12-28T03:46:48;32.77;;;19.97;;
48205;SDS011;33995;48.202;16.260;2023-12-28T03:49:19;29.20;;;19.37;;
48205;SDS011;33995;48.202;16.260;2023-12-28T03:51:47;32.13;;;20.47;;
48205;SDS011;33995;48.202;16.260;2023-12-28T03:54:16;30.33;;;20.47;;
48205;SDS011;33995;48.202;16.260;2023-12-28T03:56:45;33.43;;;21.83;;
48205;SDS011;33995;48.202;16.260;2023-12-28T03:59:13;32.70;;;22.47;;
48205;SDS011;33995;48.202;16.260;2023-12-28T04:01:44;43.97;;;23.37;;
48205;SDS011;33995;48.202;16.260;2023-12-28T04:04:11;34.97;;;22.60;;
48205;SDS011;33995;48.202;16.260;2023-12-28T04:06:38;33.60;;;21.70;;
48205;SDS011;33995;48.202;16.260;2023-12-28T04:09:06;34.87;;;21.83;;
48205;SDS011;33995;48.202;16.260;2023-12-28T04:11:33;36.10;;;21.87;;
48205;SDS011;33995;48.202;16.260;2023-12-28T04:14:00;33.83;;;21.43;;
48205;SDS011;33995;48.202;16.260;2023-12-28T04:16:27;34.53;;;22.40;;
48205;SDS011;33995;48.202;16.260;2023-12-28T04:18:54;28.23;;;20.67;;
48205;SDS011;33995;48.202;16.260;2023-12-28T04:21:21;29.87;;;21.73;;
48205;SDS011;33995;48.202;16.260;2023-12-28T04:23:48;30.40;;;20.83;;
48205;SDS011;33995;48.202;16.260;2023-12-28T04:26:19;28.13;;;20.40;;
48205;SDS011;33995;48.202;16.260;2023-12-28T04:28:46;28.70;;;20.27;;
48205;SDS011;33995;48.202;16.260;2023-12-28T04:31:13;26.67;;;20.60;;
48205;SDS011;33995;48.202;16.260;2023-12-28T04:33:42;27.03;;;19.43;;
48205;SDS011;33995;48.202;16.260;2023-12-28T04:36:10;24.40;;;19.00;;
48205;SDS011;33995;48.202;16.260;2023-12-28T04:38:37;32.07;;;19.03;;
48205;SDS011;33995;48.202;16.260;2023-12-28T04:41:05;27.03;;;18.13;;
48205;SDS011;33995;48.202;16.260;2023-12-28T04:43:32;22.10;;;17.53;;
48205;SDS011;33995;48.202;16.260;2023-12-28T04:46:03;29.30;;;18.33;;
48205;SDS011;33995;48.202;16.260;2023-12-28T04:48:31;21.20;;;17.13;;
48205;SDS011;33995;48.202;16.260;2023-12-28T04:51:01;22.77;;;18.10;;
48205;SDS011;33995;48.202;16.260;2023-12-28T04:53:29;22.73;;;18.03;;
48205;SDS011;33995;48.202;16.260;2023-12-28T04:55:57;31.60;;;19.13;;
48205;SDS011;33995;48.202;16.260;2023-12-28T04:58:25;22.93;;;17.63;;
48205;SDS011;33995;48.202;16.260;2023-12-28T05:00:52;25.90;;;18.57;;
48205;SDS011;33995;48.202;16.260;2023-12-28T05:03:19;23.60;;;17.83;;
48205;SDS011;33995;48.202;16.260;2023-12-28T05:05:46;23.23;;;16.53;;
48205;SDS011;33995;48.202;16.260;2023-12-28T05:08:15;22.57;;;17.77;;
48205;SDS011;33995;48.202;16.260;2023-12-28T05:10:42;26.40;;;18.23;;
48205;SDS011;33995;48.202;16.260;2023-12-28T05:13:10;24.87;;;17.77;;
48205;SDS011;33995;48.202;16.260;2023-12-28T05:15:37;25.93;;;17.63;;
48205;SDS011;33995;48.202;16.260;2023-12-28T05:18:04;23.50;;;17.50;;
48205;SDS011;33995;48.202;16.260;2023-12-28T05:20:34;22.47;;;17.43;;
48205;SDS011;33995;48.202;16.260;2023-12-28T05:23:01;24.70;;;18.20;;
48205;SDS011;33995;48.202;16.260;2023-12-28T05:25:28;24.20;;;17.50;;
48205;SDS011;33995;48.202;16.260;2023-12-28T05:27:55;24.50;;;18.17;;
48205;SDS011;33995;48.202;16.260;2023-12-28T05:30:23;20.80;;;16.43;;
48205;SDS011;33995;48.202;16.260;2023-12-28T05:32:50;24.73;;;17.63;;
48205;SDS011;33995;48.202;16.260;2023-12-28T05:35:17;23.57;;;17.23;;
48205;SDS011;33995;48.202;16.260;2023-12-28T05:37:44;24.53;;;17.50;;
48205;SDS011;33995;48.202;16.260;2023-12-28T05:40:14;23.10;;;17.57;;
48205;SDS011;33995;48.202;16.260;2023-12-28T05:42:41;24.77;;;18.20;;
48205;SDS011;33995;48.202;16.260;2023-12-28T05:45:08;21.97;;;16.87;;
48205;SDS011;33995;48.202;16.260;2023-12-28T05:47:37;27.27;;;16.60;;
48205;SDS011;33995;48.202;16.260;2023-12-28T05:50:04;21.97;;;17.30;;
48205;SDS011;33995;48.202;16.260;2023-12-28T05:52:32;22.93;;;16.57;;
48205;SDS011;33995;48.202;16.260;2023-12-28T05:54:59;30.50;;;17.10;;
48205;SDS011;33995;48.202;16.260;2023-12-28T05:57:26;25.03;;;17.13;;
48205;SDS011;33995;48.202;16.260;2023-12-28T05:59:59;22.67;;;16.70;;
48205;SDS011;33995;48.202;16.260;2023-12-28T06:02:26;23.03;;;17.30;;
48205;SDS011;33995;48.202;16.260;2023-12-28T06:04:53;23.70;;;17.60;;
48205;SDS011;33995;48.202;16.260;2023-12-28T06:07:20;27.43;;;19.80;;
48205;SDS011;33995;48.202;16.260;2023-12-28T06:09:47;24.87;;;18.77;;
48205;SDS011;33995;48.202;16.260;2023-12-28T06:12:15;25.10;;;18.23;;
48205;SDS011;33995;48.202;16.260;2023-12-28T06:14:42;23.17;;;17.90;;
48205;SDS011;33995;48.202;16.260;2023-12-28T06:17:09;26.07;;;18.27;;
48205;SDS011;33995;48.202;16.260;2023-12-28T06:19:36;23.13;;;18.17;;
48205;SDS011;33995;48.202;16.260;2023-12-28T06:22:03;31.57;;;17.80;;
48205;SDS011;33995;48.202;16.260;2023-12-28T06:24:30;22.87;;;16.63;;
48205;SDS011;33995;48.202;16.260;2023-12-28T06:26:57;21.77;;;16.47;;
48205;SDS011;33995;48.202;16.260;2023-12-28T06:29:24;34.43;;;17.33;;
48205;SDS011;33995;48.202;16.260;2023-12-28T06:31:51;24.40;;;16.50;;
48205;SDS011;33995;48.202;16.260;2023-12-28T06:34:18;22.27;;;16.63;;
48205;SDS011;33995;48.202;16.260;2023-12-28T06:36:45;20.73;;;15.60;;
48205;SDS011;33995;48.202;16.260;2023-12-28T06:39:12;20.53;;;15.33;;
48205;SDS011;33995;48.202;16.260;2023-12-28T06:41:39;21.87;;;16.40;;
48205;SDS011;33995;48.202;16.260;2023-12-28T06:44:06;21.93;;;16.40;;
48205;SDS011;33995;48.202;16.260;2023-12-28T06:46:36;21.27;;;16.43;;
48205;SDS011;33995;48.202;16.260;2023-12-28T06:49:03;20.67;;;15.13;;
48205;SDS011;33995;48.202;16.260;2023-12-28T06:51:34;22.63;;;15.77;;
48205;SDS011;33995;48.202;16.260;2023-12-28T06:54:01;21.93;;;16.63;;
48205;SDS011;33995;48.202;16.260;2023-12-28T06:56:28;24.17;;;16.80;;
48205;SDS011;33995;48.202;16.260;2023-12-28T06:58:55;20.33;;;16.07;;
48205;SDS011;33995;48.202;16.260;2023-12-28T07:01:22;21.10;;;15.80;;
48205;SDS011;33995;48.202;16.260;2023-12-28T07:03:49;40.30;;;16.63;;
48205;SDS011;33995;48.202;16.260;2023-12-28T07:06:16;24.27;;;15.83;;
48205;SDS011;33995;48.202;16.260;2023-12-28T07:08:43;20.20;;;16.07;;
48205;SDS011;33995;48.202;16.260;2023-12-28T07:11:10;21.37;;;15.47;;
48205;SDS011;33995;48.202;16.260;2023-12-28T07:13:38;22.73;;;15.13;;
48205;SDS011;33995;48.202;16.260;2023-12-28T07:16:08;19.10;;;14.80;;
48205;SDS011;33995;48.202;16.260;2023-12-28T07:18:36;20.57;;;15.67;;
48205;SDS011;33995;48.202;16.260;2023-12-28T07:21:03;21.20;;;15.37;;
48205;SDS011;33995;48.202;16.260;2023-12-28T07:23:32;24.27;;;16.47;;
48205;SDS011;33995;48.202;16.260;2023-12-28T07:25:59;24.43;;;15.87;;
48205;SDS011;33995;48.202;16.260;2023-12-28T07:28:29;23.23;;;15.60;;
48205;SDS011;33995;48.202;16.260;2023-12-28T07:30:56;19.30;;;14.90;;
48205;SDS011;33995;48.202;16.260;2023-12-28T07:33:23;21.07;;;15.73;;
48205;SDS011;33995;48.202;16.260;2023-12-28T07:35:51;38.97;;;17.00;;
48205;SDS011;33995;48.202;16.260;2023-12-28T07:38:21;21.67;;;15.83;;
48205;SDS011;33995;48.202;16.260;2023-12-28T07:40:48;21.87;;;17.00;;
48205;SDS011;33995;48.202;16.260;2023-12-28T07:43:15;21.10;;;16.30;;
48205;SDS011;33995;48.202;16.260;2023-12-28T07:45:44;21.30;;;16.00;;
48205;SDS011;33995;48.202;16.260;2023-12-28T07:48:11;21.27;;;15.87;;
48205;SDS011;33995;48.202;16.260;2023-12-28T07:50:39;28.43;;;18.60;;
48205;SDS011;33995;48.202;16.260;2023-12-28T07:53:06;28.10;;;18.13;;
48205;SDS011;33995;48.202;16.260;2023-12-28T07:55:33;22.90;;;17.20;;
48205;SDS011;33995;48.202;16.260;2023-12-28T07:58:01;26.13;;;18.70;;
48205;SDS011;33995;48.202;16.260;2023-12-28T08:00:28;25.50;;;19.47;;
48205;SDS011;33995;48.202;16.260;2023-12-28T08:02:55;29.30;;;20.50;;
48205;SDS011;33995;48.202;16.260;2023-12-28T08:05:22;29.50;;;21.27;;
48205;SDS011;33995;48.202;16.260;2023-12-28T08:07:49;35.23;;;20.90;;
48205;SDS011;33995;48.202;16.260;2023-12-28T08:10:16;36.00;;;18.83;;
48205;SDS011;33995;48.202;16.260;2023-12-28T08:12:43;29.00;;;19.27;;
48205;SDS011;33995;48.202;16.260;2023-12-28T08:15:10;22.73;;;16.53;;
48205;SDS011;33995;48.202;16.260;2023-12-28T08:17:37;21.67;;;15.10;;
48205;SDS011;33995;48.202;16.260;2023-12-28T08:20:05;21.40;;;15.97;;
48205;SDS011;33995;48.202;16.260;2023-12-28T08:22:33;22.20;;;15.47;;
48205;SDS011;33995;48.202;16.260;2023-12-28T08:25:00;24.00;;;17.10;;
48205;SDS011;33995;48.202;16.260;2023-12-28T08:27:27;24.47;;;17.33;;
48205;SDS011;33995;48.202;16.260;2023-12-28T08:29:54;29.83;;;19.97;;
48205;SDS011;33995;48.202;16.260;2023-12-28T08:32:21;31.57;;;21.13;;
48205;SDS011;33995;48.202;16.260;2023-12-28T08:34:48;35.37;;;22.67;;
48205;SDS011;33995;48.202;16.260;2023-12-28T08:37:16;36.37;;;22.50;;
48205;SDS011;33995;48.202;16.260;2023-12-28T08:39:43;32.73;;;21.73;;
48205;SDS011;33995;48.202;16.260;2023-12-28T08:42:10;32.10;;;22.37;;
48205;SDS011;33995;48.202;16.260;2023-12-28T08:44:37;37.57;;;22.93;;
48205;SDS011;33995;48.202;16.260;2023-12-28T08:47:04;38.03;;;23.07;;
48205;SDS011;33995;48.202;16.260;2023-12-28T08:49:31;33.77;;;23.20;;
48205;SDS011;33995;48.202;16.260;2023-12-28T08:51:59;38.93;;;23.37;;
48205;SDS011;33995;48.202;16.260;2023-12-28T08:54:27;37.57;;;23.37;;
48205;SDS011;33995;48.202;16.260;2023-12-28T08:56:54;36.60;;;23.00;;
48205;SDS011;33995;48.202;16.260;2023-12-28T08:59:25;34.77;;;22.23;;
48205;SDS011;33995;48.202;16.260;2023-12-28T09:01:55;40.00;;;23.03;;
48205;SDS011;33995;48.202;16.260;2023-12-28T09:04:22;30.93;;;21.10;;
48205;SDS011;33995;48.202;16.260;2023-12-28T09:06:49;32.73;;;21.93;;
48205;SDS011;33995;48.202;16.260;2023-12-28T09:09:19;32.70;;;21.47;;
48205;SDS011;33995;48.202;16.260;2023-12-28T09:11:51;34.23;;;22.67;;
48205;SDS011;33995;48.202;16.260;2023-12-28T09:14:18;33.87;;;21.50;;
48205;SDS011;33995;48.202;16.260;2023-12-28T09:16:47;32.37;;;20.80;;
48205;SDS011;33995;48.202;16.260;2023-12-28T09:19:15;32.47;;;21.40;;
48205;SDS011;33995;48.202;16.260;2023-12-28T09:21:42;31.90;;;20.77;;
48205;SDS011;33995;48.202;16.260;2023-12-28T09:24:09;31.53;;;21.23;;
48205;SDS011;33995;48.202;16.260;2023-12-28T09:26:40;31.97;;;20.90;;
48205;SDS011;33995;48.202;16.260;2023-12-28T09:29:07;31.17;;;20.47;;
48205;SDS011;33995;48.202;16.260;2023-12-28T09:31:34;32.70;;;20.17;;
48205;SDS011;33995;48.202;16.260;2023-12-28T09:34:01;31.53;;;20.47;;
48205;SDS011;33995;48.202;16.260;2023-12-28T09:36:28;28.43;;;19.47;;
48205;SDS011;33995;48.202;16.260;2023-12-28T09:38:55;31.10;;;20.23;;
48205;SDS011;33995;48.202;16.260;2023-12-28T09:41:25;30.27;;;19.93;;
48205;SDS011;33995;48.202;16.260;2023-12-28T09:43:54;25.97;;;18.53;;
48205;SDS011;33995;48.202;16.260;2023-12-28T09:46:27;26.50;;;18.40;;
48205;SDS011;33995;48.202;16.260;2023-12-28T09:48:54;30.17;;;19.90;;
48205;SDS011;33995;48.202;16.260;2023-12-28T09:51:23;27.67;;;19.30;;
48205;SDS011;33995;48.202;16.260;2023-12-28T09:53:52;30.37;;;20.17;;
48205;SDS011;33995;48.202;16.260;2023-12-28T09:56:19;29.30;;;20.37;;
48205;SDS011;33995;48.202;16.260;2023-12-28T09:58:46;30.13;;;19.83;;
48205;SDS011;33995;48.202;16.260;2023-12-28T10:01:17;27.93;;;20.53;;
48205;SDS011;33995;48.202;16.260;2023-12-28T10:03:46;29.40;;;20.10;;
48205;SDS011;33995;48.202;16.260;2023-12-28T10:06:13;29.60;;;20.70;;
48205;SDS011;33995;48.202;16.260;2023-12-28T10:08:46;30.03;;;20.63;;
48205;SDS011;33995;48.202;16.260;2023-12-28T10:11:16;25.63;;;18.97;;
48205;SDS011;33995;48.202;16.260;2023-12-28T10:13:44;28.23;;;19.60;;
48205;SDS011;33995;48.202;16.260;2023-12-28T10:16:12;29.07;;;19.60;;
48205;SDS011;33995;48.202;16.260;2023-12-28T10:18:42;27.90;;;19.23;;
48205;SDS011;33995;48.202;16.260;2023-12-28T10:21:10;24.00;;;17.97;;
48205;SDS011;33995;48.202;16.260;2023-12-28T10:23:38;26.20;;;18.57;;
48205;SDS011;33995;48.202;16.260;2023-12-28T10:26:06;29.73;;;18.90;;
48205;SDS011;33995;48.202;16.260;2023-12-28T10:28:37;27.37;;;18.13;;
48205;SDS011;33995;48.202;16.260;2023-12-28T10:31:05;26.10;;;18.90;;
48205;SDS011;33995;48.202;16.260;2023-12-28T10:33:35;27.00;;;18.63;;
48205;SDS011;33995;48.202;16.260;2023-12-28T10:36:05;24.83;;;17.83;;
48205;SDS011;33995;48.202;16.260;2023-12-28T10:38:37;28.03;;;18.60;;
48205;SDS011;33995;48.202;16.260;2023-12-28T10:41:07;25.57;;;17.93;;
48205;SDS011;33995;48.202;16.260;2023-12-28T10:43:38;26.53;;;19.17;;
48205;SDS011;33995;48.202;16.260;2023-12-28T10:46:07;26.17;;;18.73;;
48205;SDS011;33995;48.202;16.260;2023-12-28T10:48:36;24.50;;;18.20;;
48205;SDS011;33995;48.202;16.260;2023-12-28T10:51:10;26.00;;;18.90;;
48205;SDS011;33995;48.202;16.260;2023-12-28T10:59:01;25.37;;;18.30;;
48205;SDS011;33995;48.202;16.260;2023-12-28T11:01:31;25.03;;;18.17;;
48205;SDS011;33995;48.202;16.260;2023-12-28T11:04:02;24.47;;;17.77;;
48205;SDS011;33995;48.202;16.260;2023-12-28T11:06:39;24.80;;;17.70;;
48205;SDS011;33995;48.202;16.260;2023-12-28T11:09:09;27.83;;;19.70;;
48205;SDS011;33995;48.202;16.260;2023-12-28T11:11:38;25.47;;;18.37;;
48205;SDS011;33995;48.202;16.260;2023-12-28T11:14:06;25.40;;;18.50;;
48205;SDS011;33995;48.202;16.260;2023-12-28T11:16:34;26.63;;;18.43;;
48205;SDS011;33995;48.202;16.260;2023-12-28T11:19:05;25.23;;;18.33;;
48205;SDS011;33995;48.202;16.260;2023-12-28T11:21:34;24.03;;;18.03;;
48205;SDS011;33995;48.202;16.260;2023-12-28T11:24:02;25.73;;;18.17;;
48205;SDS011;33995;48.202;16.260;2023-12-28T11:26:30;24.47;;;17.87;;
48205;SDS011;33995;48.202;16.260;2023-12-28T11:29:01;25.30;;;18.57;;
48205;SDS011;33995;48.202;16.260;2023-12-28T11:31:31;26.80;;;18.53;;
48205;SDS011;33995;48.202;16.260;2023-12-28T11:34:04;24.70;;;18.50;;
48205;SDS011;33995;48.202;16.260;2023-12-28T11:36:35;27.10;;;19.50;;
48205;SDS011;33995;48.202;16.260;2023-12-28T11:39:11;25.37;;;18.67;;
48205;SDS011;33995;48.202;16.260;2023-12-28T11:41:46;26.73;;;18.73;;
48205;SDS011;33995;48.202;16.260;2023-12-28T11:44:13;24.67;;;17.93;;
48205;SDS011;33995;48.202;16.260;2023-12-28T11:46:40;25.17;;;18.50;;
48205;SDS011;33995;48.202;16.260;2023-12-28T11:49:10;23.30;;;17.70;;
48205;SDS011;33995;48.202;16.260;2023-12-28T11:51:40;27.37;;;19.63;;
48205;SDS011;33995;48.202;16.260;2023-12-28T11:54:08;23.80;;;17.43;;
48205;SDS011;33995;48.202;16.260;2023-12-28T11:56:35;22.17;;;17.73;;
48205;SDS011;33995;48.202;16.260;2023-12-28T12:04:43;21.57;;;16.93;;
48205;SDS011;33995;48.202;16.260;2023-12-28T12:11:45;24.43;;;17.43;;
48205;SDS011;33995;48.202;16.260;2023-12-28T12:14:12;21.97;;;16.93;;
48205;SDS011;33995;48.202;16.260;2023-12-28T12:16:58;22.43;;;16.87;;
48205;SDS011;33995;48.202;16.260;2023-12-28T12:19:46;22.23;;;17.23;;
48205;SDS011;33995;48.202;16.260;2023-12-28T12:22:36;23.27;;;17.47;;
48205;SDS011;33995;48.202;16.260;2023-12-28T12:25:24;22.77;;;17.57;;
48205;SDS011;33995;48.202;16.260;2023-12-28T12:28:11;23.67;;;18.00;;
48205;SDS011;33995;48.202;16.260;2023-12-28T12:30:59;21.27;;;17.30;;
48205;SDS011;33995;48.202;16.260;2023-12-28T12:33:48;21.10;;;16.83;;
48205;SDS011;33995;48.202;16.260;2023-12-28T12:36:38;20.50;;;16.87;;
48205;SDS011;33995;48.202;16.260;2023-12-28T12:39:26;22.30;;;17.63;;
48205;SDS011;33995;48.202;16.260;2023-12-28T12:42:14;21.73;;;16.83;;
48205;SDS011;33995;48.202;16.260;2023-12-28T12:45:03;23.97;;;17.47;;
48205;SDS011;33995;48.202;16.260;2023-12-28T12:47:51;22.50;;;17.07;;
48205;SDS011;33995;48.202;16.260;2023-12-28T12:50:39;21.83;;;16.87;;
48205;SDS011;33995;48.202;16.260;2023-12-28T12:53:32;23.90;;;18.07;;
48205;SDS011;33995;48.202;16.260;2023-12-28T12:56:25;22.03;;;16.63;;
48205;SDS011;33995;48.202;16.260;2023-12-28T12:59:13;23.20;;;17.33;;
48205;SDS011;33995;48.202;16.260;2023-12-28T13:02:03;20.80;;;16.27;;
48205;SDS011;33995;48.202;16.260;2023-12-28T13:04:55;22.10;;;17.47;;
48205;SDS011;33995;48.202;16.260;2023-12-28T13:07:43;23.07;;;17.43;;
48205;SDS011;33995;48.202;16.260;2023-12-28T13:10:30;20.50;;;16.53;;
48205;SDS011;33995;48.202;16.260;2023-12-28T13:13:18;22.93;;;16.93;;
48205;SDS011;33995;48.202;16.260;2023-12-28T13:16:05;21.50;;;16.73;;
48205;SDS011;33995;48.202;16.260;2023-12-28T13:18:53;20.60;;;16.30;;
48205;SDS011;33995;48.202;16.260;2023-12-28T13:21:46;22.20;;;17.50;;
48205;SDS011;33995;48.202;16.260;2023-12-28T13:24:33;20.53;;;16.93;;
48205;SDS011;33995;48.202;16.260;2023-12-28T13:27:20;21.07;;;16.70;;
48205;SDS011;33995;48.202;16.260;2023-12-28T13:30:08;21.77;;;16.90;;
48205;SDS011;33995;48.202;16.260;2023-12-28T13:32:56;21.33;;;16.67;;
48205;SDS011;33995;48.202;16.260;2023-12-28T13:35:45;19.63;;;15.97;;
48205;SDS011;33995;48.202;16.260;2023-12-28T13:38:12;20.70;;;16.30;;
48205;SDS011;33995;48.202;16.260;2023-12-28T13:40:39;20.33;;;16.33;;
48205;SDS011;33995;48.202;16.260;2023-12-28T13:43:06;22.23;;;17.20;;
48205;SDS011;33995;48.202;16.260;2023-12-28T13:45:33;22.37;;;17.77;;
48205;SDS011;33995;48.202;16.260;2023-12-28T13:48:00;22.10;;;16.87;;
48205;SDS011;33995;48.202;16.260;2023-12-28T13:50:27;21.40;;;16.93;;
48205;SDS011;33995;48.202;16.260;2023-12-28T13:52:54;20.40;;;16.70;;
48205;SDS011;33995;48.202;16.260;2023-12-28T13:55:22;21.53;;;16.90;;
48205;SDS011;33995;48.202;16.260;2023-12-28T13:57:49;18.80;;;15.50;;
48205;SDS011;33995;48.202;16.260;2023-12-28T14:00:16;20.73;;;16.67;;
48205;SDS011;33995;48.202;16.260;2023-12-28T14:02:43;21.97;;;16.67;;
48205;SDS011;33995;48.202;16.260;2023-12-28T14:05:10;20.50;;;16.40;;
48205;SDS011;33995;48.202;16.260;2023-12-28T14:07:38;22.00;;;16.63;;
48205;SDS011;33995;48.202;16.260;2023-12-28T14:10:05;21.37;;;17.00;;
48205;SDS011;33995;48.202;16.260;2023-12-28T14:12:36;21.33;;;17.33;;
48205;SDS011;33995;48.202;16.260;2023-12-28T14:15:06;21.07;;;16.73;;
48205;SDS011;33995;48.202;16.260;2023-12-28T14:17:36;21.50;;;17.37;;
48205;SDS011;33995;48.202;16.260;2023-12-28T14:20:03;21.40;;;17.13;;
48205;SDS011;33995;48.202;16.260;2023-12-28T14:22:34;22.00;;;16.93;;
48205;SDS011;33995;48.202;16.260;2023-12-28T14:25:04;20.63;;;16.60;;
48205;SDS011;33995;48.202;16.260;2023-12-28T14:27:32;20.60;;;16.70;;
48205;SDS011;33995;48.202;16.260;2023-12-28T14:29:59;20.13;;;16.10;;
48205;SDS011;33995;48.202;16.260;2023-12-28T14:32:30;21.30;;;16.60;;
48205;SDS011;33995;48.202;16.260;2023-12-28T14:35:01;20.10;;;16.40;;
48205;SDS011;33995;48.202;16.260;2023-12-28T14:37:28;21.23;;;16.97;;
48205;SDS011;33995;48.202;16.260;2023-12-28T14:39:55;21.63;;;16.70;;
48205;SDS011;33995;48.202;16.260;2023-12-28T14:42:23;22.30;;;17.23;;